createdAt,value
2019-01-08T00:00:42.323Z,90.88
2019-01-08T00:03:11.091Z,90.67
2019-01-08T00:05:40.230Z,90.16
2019-01-08T00:08:09.024Z,90.63
2019-01-08T00:10:38.043Z,90.45
2019-01-08T00:13:06.876Z,90.76
2019-01-08T00:15:35.697Z,89.99
2019-01-08T00:18:04.511Z,89.49
2019-01-08T00:20:33.585Z,89.81
2019-01-08T00:23:02.365Z,90.36
2019-01-08T00:25:31.153Z,89.69
2019-01-08T00:27:59.935Z,89.46
2019-01-08T00:30:29.067Z,88.76
2019-01-08T00:32:58.122Z,89.21
2019-01-08T00:35:27.180Z,88.95
2019-01-08T00:37:56.313Z,89.29
2019-01-08T00:40:25.128Z,88.86
2019-01-08T00:42:53.917Z,88.60
2019-01-08T00:45:22.954Z,88.60
2019-01-08T00:47:51.743Z,88.79
2019-01-08T00:50:20.590Z,88.68
2019-01-08T00:52:49.794Z,88.35
2019-01-08T00:55:18.560Z,88.14
2019-01-08T00:57:47.349Z,88.06
2019-01-08T01:00:17.092Z,88.18
2019-01-08T01:02:45.898Z,87.78
2019-01-08T01:05:14.714Z,87.32
2019-01-08T01:07:43.506Z,87.42
2019-01-08T01:10:12.396Z,86.93
2019-01-08T01:12:43.410Z,87.02
2019-01-08T01:15:12.379Z,87.19
2019-01-08T01:17:41.505Z,86.65
2019-01-08T01:20:10.331Z,86.52
2019-01-08T01:22:39.111Z,86.63
2019-01-08T01:25:08.065Z,85.45
2019-01-08T01:27:36.857Z,86.15
2019-01-08T01:30:06.080Z,85.99
2019-01-08T01:32:34.945Z,86.35
2019-01-08T01:35:03.811Z,86.90
2019-01-08T01:37:32.850Z,87.01
2019-01-08T01:40:01.990Z,86.26
2019-01-08T01:42:30.833Z,86.18
2019-01-08T01:44:59.779Z,85.88
2019-01-08T01:47:28.683Z,86.15
2019-01-08T01:49:57.534Z,86.53
2019-01-08T01:52:26.454Z,85.91
2019-01-08T01:54:55.824Z,85.17
2019-01-08T01:57:24.649Z,85.51
2019-01-08T01:59:53.732Z,84.73
2019-01-08T02:02:22.656Z,85.69
2019-01-08T02:04:51.520Z,85.98
2019-01-08T02:07:20.315Z,85.50
2019-01-08T02:09:49.367Z,85.87
2019-01-08T02:12:18.240Z,85.77
2019-01-08T02:14:47.384Z,85.57
2019-01-08T02:17:16.184Z,85.18
2019-01-08T02:19:45.578Z,84.69
2019-01-08T02:22:14.637Z,84.42
2019-01-08T02:24:43.775Z,84.22
2019-01-08T02:27:12.605Z,84.42
2019-01-08T02:29:41.536Z,84.42
2019-01-08T02:32:10.361Z,84.03
2019-01-08T02:34:39.150Z,84.42
2019-01-08T02:37:08.227Z,85.03
2019-01-08T02:39:37.304Z,86.71
2019-01-08T02:42:06.087Z,86.35
2019-01-08T02:44:34.970Z,87.24
2019-01-08T02:47:04.150Z,87.35
2019-01-08T02:49:35.029Z,87.91
2019-01-08T02:52:04.083Z,88.18
2019-01-08T02:54:33.186Z,88.84
2019-01-08T02:57:02.247Z,88.17
2019-01-08T02:59:31.565Z,88.04
2019-01-08T03:02:00.620Z,88.23
2019-01-08T03:04:29.443Z,88.45
2019-01-08T03:06:58.497Z,88.68
2019-01-08T03:09:28.803Z,88.76
2019-01-08T03:11:57.902Z,89.14
2019-01-08T03:14:27.008Z,89.38
2019-01-08T03:16:55.887Z,89.74
2019-01-08T03:19:24.939Z,90.48
2019-01-08T03:21:53.994Z,90.62
2019-01-08T03:24:22.817Z,91.15
2019-01-08T03:26:51.612Z,91.55
2019-01-08T03:29:22.680Z,91.55
2019-01-08T03:31:52.074Z,91.39
2019-01-08T03:34:20.847Z,91.26
2019-01-08T03:36:49.643Z,91.11
2019-01-08T03:39:18.470Z,90.94
2019-01-08T03:41:47.580Z,91.51
2019-01-08T03:44:16.411Z,90.47
2019-01-08T03:46:45.357Z,91.03
2019-01-08T03:49:14.135Z,90.54
2019-01-08T03:51:42.942Z,91.02
2019-01-08T03:54:12.090Z,90.82
2019-01-08T03:56:40.941Z,91.16
2019-01-08T03:59:10.034Z,90.61
2019-01-08T04:01:39.461Z,90.98
2019-01-08T04:04:08.261Z,91.13
2019-01-08T04:06:37.406Z,91.49
2019-01-08T04:09:07.195Z,91.55
2019-01-08T04:11:36.051Z,91.90
2019-01-08T04:14:05.162Z,91.98
2019-01-08T04:16:33.935Z,92.15
2019-01-08T04:19:02.785Z,92.23
2019-01-08T04:21:31.595Z,90.88
2019-01-08T04:24:00.636Z,90.51
2019-01-08T04:26:30.792Z,90.66
2019-01-08T04:28:59.673Z,90.85
2019-01-08T04:31:28.476Z,91.08
2019-01-08T04:33:57.284Z,90.33
2019-01-08T04:36:26.458Z,91.15
2019-01-08T04:38:55.276Z,90.29
2019-01-08T04:41:24.072Z,90.72
2019-01-08T04:43:53.032Z,91.21
2019-01-08T04:46:21.861Z,91.29
2019-01-08T04:48:50.658Z,90.83
2019-01-08T04:51:19.411Z,90.57
2019-01-08T04:53:48.206Z,90.84
2019-01-08T04:56:17.077Z,91.04
2019-01-08T04:58:45.856Z,91.67
2019-01-08T05:01:15.084Z,91.64
2019-01-08T05:03:44.120Z,92.22
2019-01-08T05:06:13.240Z,93.21
2019-01-08T05:08:42.412Z,92.70
2019-01-08T05:11:11.194Z,93.09
2019-01-08T05:13:40.067Z,93.37
2019-01-08T05:16:08.855Z,93.19
2019-01-08T05:18:37.629Z,93.08
2019-01-08T05:21:06.713Z,93.06
2019-01-08T05:23:36.036Z,93.12
2019-01-08T05:26:04.905Z,93.41
2019-01-08T05:28:33.739Z,93.30
2019-01-08T05:31:03.144Z,93.62
2019-01-08T05:33:31.977Z,93.66
2019-01-08T05:36:00.804Z,93.49
2019-01-08T05:38:34.369Z,93.73
2019-01-08T05:41:03.143Z,94.38
2019-01-08T05:43:32.000Z,94.08
2019-01-08T05:46:00.894Z,93.98
2019-01-08T05:48:29.679Z,94.49
2019-01-08T05:50:58.708Z,94.63
2019-01-08T05:53:27.779Z,94.48
2019-01-08T05:55:56.633Z,94.58
2019-01-08T05:58:25.406Z,94.83
2019-01-08T06:00:54.190Z,94.56
2019-01-08T06:03:23.021Z,94.47
2019-01-08T06:05:51.945Z,94.38
2019-01-08T06:08:20.997Z,94.45
2019-01-08T06:10:50.065Z,94.38
2019-01-08T06:13:19.105Z,94.50
2019-01-08T06:15:47.953Z,94.38
2019-01-08T06:18:16.967Z,94.59
2019-01-08T06:20:45.843Z,94.86
2019-01-08T06:23:14.728Z,94.95
2019-01-08T06:25:43.501Z,95.01
2019-01-08T06:28:12.537Z,94.89
2019-01-08T06:30:41.322Z,94.33
2019-01-08T06:33:10.440Z,94.62
2019-01-08T06:35:39.220Z,94.87
2019-01-08T06:38:08.006Z,95.08
2019-01-08T06:40:37.051Z,95.09
2019-01-08T06:43:05.826Z,94.92
2019-01-08T06:45:38.142Z,94.45
2019-01-08T06:48:06.940Z,94.60
2019-01-08T06:50:35.710Z,95.02
2019-01-08T06:53:04.737Z,94.64
2019-01-08T06:55:36.304Z,94.00
2019-01-08T06:58:05.091Z,93.80
2019-01-08T07:00:33.886Z,93.63
2019-01-08T07:03:02.718Z,93.87
2019-01-08T07:05:31.543Z,94.10
2019-01-08T07:08:00.309Z,94.46
2019-01-08T07:10:29.090Z,94.36
2019-01-08T07:12:58.507Z,94.24
2019-01-08T07:15:38.048Z,94.65
2019-01-08T07:18:06.750Z,94.90
2019-01-08T07:20:36.296Z,94.97
2019-01-08T07:23:05.516Z,94.54
2019-01-08T07:25:41.928Z,95.06
2019-01-08T07:28:04.809Z,95.21
2019-01-08T07:30:41.231Z,94.97
2019-01-08T07:33:04.124Z,94.99
2019-01-08T07:35:33.302Z,95.57
2019-01-08T07:38:02.276Z,95.50
2019-01-08T07:40:31.057Z,95.53
2019-01-08T07:42:59.803Z,95.51
2019-01-08T07:45:28.667Z,95.53
2019-01-08T07:47:57.469Z,94.91
2019-01-08T07:50:26.262Z,95.29
2019-01-08T07:52:55.029Z,95.24
2019-01-08T07:55:23.846Z,95.29
2019-01-08T07:57:52.932Z,95.09
2019-01-08T08:00:21.786Z,95.26
2019-01-08T08:02:50.620Z,95.39
2019-01-08T08:05:19.687Z,95.57
2019-01-08T08:07:48.478Z,95.01
2019-01-08T08:10:17.242Z,94.64
2019-01-08T08:12:46.282Z,94.88
2019-01-08T08:15:15.422Z,95.00
2019-01-08T08:17:44.310Z,94.67
2019-01-08T08:20:13.616Z,94.82
2019-01-08T08:22:42.687Z,94.77
2019-01-08T08:25:11.770Z,94.95
2019-01-08T08:27:40.549Z,95.21
2019-01-08T08:30:09.930Z,95.11
2019-01-08T08:32:38.717Z,94.90
2019-01-08T08:35:08.779Z,94.97
2019-01-08T08:37:37.717Z,95.09
2019-01-08T08:40:07.283Z,95.07
2019-01-08T08:42:36.356Z,94.68
2019-01-08T08:45:05.361Z,94.47
2019-01-08T08:47:35.826Z,94.43
2019-01-08T08:50:05.219Z,94.01
2019-01-08T08:52:33.988Z,94.44
2019-01-08T08:55:03.053Z,94.47
2019-01-08T08:57:32.331Z,94.23
2019-01-08T09:00:01.092Z,94.11
2019-01-08T09:02:29.881Z,93.76
2019-01-08T09:04:58.945Z,93.99
2019-01-08T09:07:27.971Z,94.05
2019-01-08T09:09:56.782Z,93.86
2019-01-08T09:12:25.579Z,93.91
2019-01-08T09:14:54.335Z,94.30
2019-01-08T09:17:23.141Z,94.40
2019-01-08T09:19:51.897Z,94.53
2019-01-08T09:22:20.733Z,94.65
2019-01-08T09:24:49.888Z,94.45
2019-01-08T09:27:18.648Z,94.43
2019-01-08T09:29:47.417Z,93.91
2019-01-08T09:32:16.614Z,93.79
2019-01-08T09:34:45.377Z,92.96
2019-01-08T09:37:14.186Z,93.34
2019-01-08T09:39:43.425Z,93.48
2019-01-08T09:42:12.273Z,92.99
2019-01-08T09:44:41.042Z,92.59
2019-01-08T09:47:09.800Z,92.40
2019-01-08T09:49:38.625Z,92.45
2019-01-08T09:52:07.396Z,92.18
2019-01-08T09:54:36.299Z,92.40
2019-01-08T09:57:05.424Z,91.98
2019-01-08T09:59:35.582Z,91.68
2019-01-08T10:02:05.075Z,91.01
2019-01-08T10:04:33.875Z,90.70
2019-01-08T10:07:02.693Z,89.63
2019-01-08T10:09:31.473Z,89.73
2019-01-08T10:12:00.254Z,89.42
2019-01-08T10:14:29.021Z,89.51
2019-01-08T10:16:57.928Z,89.59
2019-01-08T10:19:26.911Z,89.73
2019-01-08T10:21:55.729Z,90.30
2019-01-08T10:24:24.528Z,90.86
2019-01-08T10:26:53.327Z,91.76
2019-01-08T10:29:22.375Z,91.85
2019-01-08T10:31:51.851Z,92.26
2019-01-08T10:34:20.704Z,92.50
2019-01-08T10:36:49.461Z,92.92
2019-01-08T10:39:18.253Z,92.48
2019-01-08T10:41:47.180Z,92.80
2019-01-08T10:44:16.060Z,93.25
2019-01-08T10:46:45.098Z,92.79
2019-01-08T10:49:13.998Z,92.52
2019-01-08T10:51:42.795Z,92.54
2019-01-08T10:54:11.614Z,92.58
2019-01-08T10:56:40.437Z,91.52
2019-01-08T10:59:09.208Z,90.91
2019-01-08T11:01:40.748Z,90.29
2019-01-08T11:04:09.855Z,90.55
2019-01-08T11:06:38.709Z,89.78
2019-01-08T11:09:08.064Z,89.89
2019-01-08T11:11:37.250Z,89.09
2019-01-08T11:14:06.554Z,89.63
2019-01-08T11:16:35.400Z,88.31
2019-01-08T11:19:06.845Z,87.47
2019-01-08T11:21:35.929Z,88.33
2019-01-08T11:24:05.402Z,88.61
2019-01-08T11:26:34.434Z,87.89
2019-01-08T11:29:03.547Z,87.95
2019-01-08T11:31:32.473Z,87.12
2019-01-08T11:34:01.236Z,87.50
2019-01-08T11:36:30.297Z,86.46
2019-01-08T11:38:59.114Z,86.20
2019-01-08T11:41:27.948Z,86.17
2019-01-08T11:43:56.999Z,86.39
2019-01-08T11:46:26.099Z,85.91
2019-01-08T11:48:54.908Z,86.09
2019-01-08T11:51:23.709Z,86.17
2019-01-08T11:53:52.737Z,85.52
2019-01-08T11:56:21.793Z,85.75
2019-01-08T11:58:50.593Z,85.65
2019-01-08T12:01:19.919Z,85.08
2019-01-08T12:03:49.253Z,85.11
2019-01-08T12:06:18.103Z,85.20
2019-01-08T12:08:47.173Z,85.33
2019-01-08T12:11:15.969Z,84.71
2019-01-08T12:13:44.761Z,84.51
2019-01-08T12:16:13.556Z,84.72
2019-01-08T12:18:42.355Z,84.28
2019-01-08T12:21:11.767Z,84.63
2019-01-08T12:23:40.783Z,84.99
2019-01-08T12:26:09.961Z,84.77
2019-01-08T12:28:38.728Z,85.04
2019-01-08T12:31:07.479Z,85.44
2019-01-08T12:33:36.271Z,84.88
2019-01-08T12:36:05.074Z,84.65
2019-01-08T12:38:34.378Z,84.80
2019-01-08T12:41:03.659Z,85.08
2019-01-08T12:43:32.551Z,85.07
2019-01-08T12:46:01.644Z,85.00
2019-01-08T12:48:30.474Z,84.76
2019-01-08T12:50:59.313Z,84.39
2019-01-08T12:53:28.431Z,85.85
2019-01-08T12:55:57.826Z,84.75
2019-01-08T12:58:26.923Z,84.08
2019-01-08T13:00:55.700Z,83.79
2019-01-08T13:03:24.505Z,83.75
2019-01-08T13:05:53.330Z,84.02
2019-01-08T13:08:22.194Z,84.32
2019-01-08T13:10:50.950Z,84.18
2019-01-08T13:13:19.919Z,84.64
2019-01-08T13:15:48.690Z,84.57
2019-01-08T13:18:17.703Z,84.52
2019-01-08T13:20:46.506Z,84.85
2019-01-08T13:23:15.271Z,84.83
2019-01-08T13:25:44.099Z,85.19
2019-01-08T13:28:12.900Z,85.41
2019-01-08T13:30:41.683Z,85.62
2019-01-08T13:33:10.483Z,85.82
2019-01-08T13:35:39.451Z,85.91
2019-01-08T13:38:08.286Z,87.18
2019-01-08T13:40:37.120Z,88.08
2019-01-08T13:43:06.184Z,88.29
2019-01-08T13:45:35.239Z,88.64
2019-01-08T13:48:04.206Z,88.24
2019-01-08T13:50:34.342Z,87.84
2019-01-08T13:53:03.213Z,87.43
2019-01-08T13:55:31.985Z,86.57
2019-01-08T13:58:00.748Z,87.49
2019-01-08T14:00:31.692Z,86.57
2019-01-08T14:03:00.774Z,87.44
2019-01-08T14:05:29.596Z,87.36
2019-01-08T14:07:58.683Z,86.37
2019-01-08T14:10:34.361Z,86.23
2019-01-08T14:13:04.172Z,85.98
2019-01-08T14:15:32.931Z,86.20
2019-01-08T14:18:02.058Z,85.75
2019-01-08T14:20:31.388Z,84.86
2019-01-08T14:23:00.280Z,83.62
2019-01-08T14:25:29.061Z,83.75
2019-01-08T14:27:58.116Z,84.02
2019-01-08T14:30:27.162Z,85.13
2019-01-08T14:32:56.120Z,84.89
2019-01-08T14:35:26.355Z,85.33
2019-01-08T14:37:55.239Z,85.08
2019-01-08T14:40:24.219Z,85.10
2019-01-08T14:42:53.053Z,85.01
2019-01-08T14:45:22.021Z,85.14
2019-01-08T14:47:50.808Z,84.37
2019-01-08T14:50:19.871Z,83.92
2019-01-08T14:52:48.674Z,82.93
2019-01-08T14:55:20.669Z,80.69
2019-01-08T14:57:52.565Z,80.74
2019-01-08T15:00:21.516Z,79.50
2019-01-08T15:02:52.881Z,78.88
2019-01-08T15:05:21.859Z,79.07
2019-01-08T15:07:51.143Z,79.48
2019-01-08T15:10:20.185Z,78.77
2019-01-08T15:12:49.034Z,79.04
2019-01-08T15:15:18.581Z,79.12
2019-01-08T15:17:47.747Z,78.01
2019-01-08T15:20:16.548Z,77.68
2019-01-08T15:22:46.568Z,77.90
2019-01-08T15:25:15.438Z,77.58
2019-01-08T15:27:52.468Z,77.94
2019-01-08T15:30:21.321Z,78.31
2019-01-08T15:32:58.244Z,78.15
2019-01-08T15:35:23.179Z,77.92
2019-01-08T15:37:52.275Z,78.74
2019-01-08T15:40:21.175Z,79.12
2019-01-08T15:42:49.981Z,79.37
2019-01-08T15:45:19.111Z,79.66
2019-01-08T15:47:51.283Z,79.33
2019-01-08T15:50:20.314Z,79.61
2019-01-08T15:52:49.397Z,78.71
2019-01-08T15:55:18.430Z,79.69
2019-01-08T15:57:47.232Z,79.24
2019-01-08T16:00:16.237Z,79.50
2019-01-08T16:02:45.042Z,79.64
2019-01-08T16:05:13.890Z,79.37
2019-01-08T16:07:42.643Z,79.95
2019-01-08T16:10:11.438Z,80.29
2019-01-08T16:12:40.212Z,80.31
2019-01-08T16:15:09.225Z,80.38
2019-01-08T16:17:38.280Z,80.33
2019-01-08T16:20:07.795Z,80.08
2019-01-08T16:22:36.644Z,80.62
2019-01-08T16:25:05.888Z,80.15
2019-01-08T16:27:35.114Z,80.41
2019-01-08T16:30:05.658Z,80.31
2019-01-08T16:32:34.717Z,80.34
2019-01-08T16:35:03.838Z,79.32
2019-01-08T16:37:32.629Z,79.71
2019-01-08T16:40:01.496Z,80.05
2019-01-08T16:42:30.535Z,80.19
2019-01-08T16:44:59.663Z,79.64
2019-01-08T16:47:28.745Z,79.11
2019-01-08T16:49:57.555Z,79.52
2019-01-08T16:52:26.380Z,79.09
2019-01-08T16:54:55.421Z,78.12
2019-01-08T16:57:24.712Z,78.01
2019-01-08T16:59:57.134Z,77.52
2019-01-08T17:02:28.992Z,77.09
2019-01-08T17:05:24.282Z,76.57
2019-01-08T17:07:48.835Z,77.22
2019-01-08T17:10:18.250Z,76.99
2019-01-08T17:13:02.122Z,76.86
2019-01-08T17:15:30.869Z,76.94
2019-01-08T17:17:59.912Z,76.42
2019-01-08T17:20:28.752Z,76.25
2019-01-08T17:22:57.986Z,76.35
2019-01-08T17:25:26.794Z,75.54
2019-01-08T17:27:55.889Z,75.85
2019-01-08T17:30:25.053Z,75.98
2019-01-08T17:32:54.229Z,75.42
2019-01-08T17:35:25.888Z,75.83
2019-01-08T17:37:54.644Z,75.50
2019-01-08T17:40:23.483Z,75.13
2019-01-08T17:42:52.848Z,75.00
2019-01-08T17:45:21.619Z,75.22
2019-01-08T17:47:50.385Z,74.76
2019-01-08T17:50:19.560Z,74.88
2019-01-08T17:52:48.758Z,75.51
2019-01-08T17:55:17.793Z,75.34
2019-01-08T17:57:46.625Z,75.25
2019-01-08T18:00:15.591Z,75.56
2019-01-08T18:02:49.401Z,75.79
2019-01-08T18:05:18.486Z,75.90
2019-01-08T18:07:47.283Z,76.04
2019-01-08T18:10:18.689Z,75.73
2019-01-08T18:12:47.486Z,75.55
2019-01-08T18:15:16.363Z,75.64
2019-01-08T18:17:45.132Z,75.32
2019-01-08T18:20:14.184Z,75.32
2019-01-08T18:22:42.982Z,75.18
2019-01-08T18:25:11.941Z,74.76
2019-01-08T18:27:40.827Z,74.51
2019-01-08T18:30:09.683Z,74.29
2019-01-08T18:32:38.597Z,74.41
2019-01-08T18:35:07.580Z,74.54
2019-01-08T18:37:36.402Z,74.65
2019-01-08T18:40:05.844Z,75.09
2019-01-08T18:42:36.214Z,74.54
2019-01-08T18:45:05.273Z,74.66
2019-01-08T18:47:34.040Z,74.62
2019-01-08T18:50:03.202Z,74.59
2019-01-08T18:52:32.218Z,74.43
2019-01-08T18:55:01.393Z,74.68
2019-01-08T18:57:30.619Z,74.58
2019-01-08T18:59:59.949Z,74.98
2019-01-08T19:02:28.868Z,75.44
2019-01-08T19:04:57.751Z,75.84
2019-01-08T19:07:26.658Z,75.49
2019-01-08T19:10:07.247Z,74.88
2019-01-08T19:12:36.102Z,74.92
2019-01-08T19:15:05.493Z,75.28
2019-01-08T19:17:34.596Z,74.87
2019-01-08T19:20:03.496Z,74.79
2019-01-08T19:22:32.318Z,74.99
2019-01-08T19:25:01.173Z,75.04
2019-01-08T19:27:30.268Z,75.14
2019-01-08T19:29:59.333Z,75.18
2019-01-08T19:32:28.127Z,75.69
2019-01-08T19:34:57.406Z,75.87
2019-01-08T19:37:26.740Z,76.23
2019-01-08T19:39:55.504Z,77.04
2019-01-08T19:42:24.287Z,76.92
2019-01-08T19:44:53.141Z,77.23
2019-01-08T19:47:22.169Z,78.04
2019-01-08T19:49:51.515Z,78.14
2019-01-08T19:52:20.355Z,77.16
2019-01-08T19:54:49.153Z,77.04
2019-01-08T19:57:18.151Z,77.11
2019-01-08T19:59:46.945Z,77.42
2019-01-08T20:02:15.806Z,78.42
2019-01-08T20:04:44.600Z,78.84
2019-01-08T20:07:13.648Z,79.45
2019-01-08T20:09:42.839Z,80.12
2019-01-08T20:12:11.794Z,80.48
2019-01-08T20:14:40.580Z,81.54
2019-01-08T20:17:09.407Z,81.63
2019-01-08T20:19:38.218Z,81.99
2019-01-08T20:22:07.425Z,82.54
2019-01-08T20:24:36.188Z,82.59
2019-01-08T20:27:05.165Z,82.51
2019-01-08T20:29:34.234Z,82.71
2019-01-08T20:32:03.527Z,82.79
2019-01-08T20:34:32.298Z,82.89
2019-01-08T20:37:01.086Z,82.32
2019-01-08T20:39:29.865Z,83.08
2019-01-08T20:41:58.837Z,82.85
2019-01-08T20:44:29.025Z,83.28
2019-01-08T20:47:00.087Z,82.44
2019-01-08T20:49:29.301Z,83.83
2019-01-08T20:51:58.209Z,82.76
2019-01-08T20:54:27.282Z,82.12
2019-01-08T20:56:56.570Z,82.80
2019-01-08T20:59:32.505Z,82.94
2019-01-08T21:02:03.138Z,83.73
2019-01-08T21:04:35.649Z,83.80
2019-01-08T21:07:03.170Z,84.55
2019-01-08T21:09:32.313Z,84.52
2019-01-08T21:12:01.496Z,84.72
2019-01-08T21:14:30.359Z,84.36
2019-01-08T21:16:59.494Z,85.38
2019-01-08T21:19:28.377Z,85.38
2019-01-08T21:21:57.198Z,85.06
2019-01-08T21:24:28.940Z,85.40
2019-01-08T21:26:56.520Z,85.13
2019-01-08T21:29:28.894Z,85.48
2019-01-08T21:31:57.701Z,85.05
2019-01-08T21:34:26.968Z,84.51
2019-01-08T21:36:55.775Z,84.89
2019-01-08T21:39:25.083Z,84.80
2019-01-08T21:41:53.854Z,84.60
2019-01-08T21:44:22.689Z,84.85
2019-01-08T21:47:03.617Z,85.32
2019-01-08T21:49:32.424Z,85.35
2019-01-08T21:52:01.223Z,85.19
2019-01-08T21:54:30.071Z,85.46
2019-01-08T21:56:59.025Z,85.60
2019-01-08T21:59:39.601Z,85.23
2019-01-08T22:02:17.556Z,85.52
2019-01-08T22:04:53.311Z,85.34
2019-01-08T22:07:27.041Z,85.05
2019-01-08T22:10:05.429Z,85.08
2019-01-08T22:12:52.410Z,84.36
2019-01-08T22:15:27.545Z,84.61
2019-01-08T22:17:56.806Z,85.24
2019-01-08T22:20:25.587Z,85.48
2019-01-08T22:22:54.431Z,84.91
2019-01-08T22:25:23.253Z,85.10
2019-01-08T22:27:52.793Z,86.32
2019-01-08T22:30:21.676Z,85.79
2019-01-08T22:32:50.464Z,85.06
2019-01-08T22:35:19.322Z,85.06
2019-01-08T22:37:48.091Z,85.66
2019-01-08T22:40:16.866Z,85.08
2019-01-08T22:42:45.652Z,85.07
2019-01-08T22:45:16.309Z,84.40
2019-01-08T22:47:45.427Z,84.63
2019-01-08T22:50:14.289Z,84.67
2019-01-08T22:52:43.152Z,84.33
2019-01-08T22:55:12.129Z,84.38
2019-01-08T22:57:40.933Z,84.40
2019-01-08T23:00:33.054Z,84.86
2019-01-08T23:03:02.224Z,84.61
2019-01-08T23:05:31.271Z,84.71
2019-01-08T23:08:00.256Z,84.33
2019-01-08T23:10:30.680Z,83.22
2019-01-08T23:12:59.950Z,83.31
2019-01-08T23:15:28.898Z,82.65
2019-01-08T23:17:57.825Z,82.50
2019-01-08T23:20:26.682Z,81.91
2019-01-08T23:22:55.555Z,82.28
2019-01-08T23:25:24.602Z,81.75
2019-01-08T23:27:53.780Z,81.20
2019-01-08T23:30:22.913Z,81.51
2019-01-08T23:32:51.889Z,80.76
2019-01-08T23:35:21.208Z,80.81
2019-01-08T23:37:50.100Z,79.49
2019-01-08T23:40:19.348Z,79.56
2019-01-08T23:42:48.185Z,80.10
2019-01-08T23:45:17.154Z,79.42
2019-01-08T23:47:46.024Z,79.26
2019-01-08T23:50:14.845Z,79.16
2019-01-08T23:52:51.796Z,79.73
2019-01-08T23:55:22.995Z,79.33
2019-01-08T23:57:59.228Z,79.17
